Time;durP1;ratioP1;P1;durP2;ratioP2;P2;SDS_P1;SDS_P2;PMS_P1;PMS_P2;Temp;Humidity;BMP_temperature;BMP_pressure;BME280_temperature;BME280_humidity;BME280_pressure;Samples;Min_cycle;Max_cycle;Signal;HPM_P1;HPM_P2
2021/12/25 00:00:14;;;;;;;14.10;9.07;;;6.40;99.60;;;;;;5033288;28;20532;-72
2021/12/25 00:02:41;;;;;;;15.68;9.95;;;6.40;99.40;;;;;;5034078;28;20033;-72
2021/12/25 00:05:09;;;;;;;15.33;9.87;;;6.40;99.40;;;;;;5016664;28;20029;-71
2021/12/25 00:07:34;;;;;;;15.63;9.07;;;6.40;99.40;;;;;;5016950;28;20105;-71
2021/12/25 00:10:00;;;;;;;14.43;8.73;;;6.30;99.30;;;;;;5033689;28;20445;-71
2021/12/25 00:12:26;;;;;;;14.10;8.90;;;6.30;99.20;;;;;;5016416;28;20030;-71
2021/12/25 00:14:52;;;;;;;14.30;9.77;;;6.30;99.30;;;;;;5000085;28;20092;-71
2021/12/25 00:17:18;;;;;;;15.23;9.37;;;6.20;99.30;;;;;;5034168;28;20029;-71
2021/12/25 00:19:43;;;;;;;14.57;8.87;;;6.30;99.30;;;;;;5034218;28;20103;-70
2021/12/25 00:22:10;;;;;;;14.83;9.17;;;6.20;99.30;;;;;;5034175;28;20079;-71
2021/12/25 00:24:41;;;;;;;13.67;9.07;;;6.20;99.20;;;;;;5016533;28;20366;-71
2021/12/25 00:27:23;;;;;;;14.43;9.57;;;6.20;99.20;;;;;;5000577;28;20079;-71
2021/12/25 00:30:07;;;;;;;14.67;8.93;;;6.10;99.20;;;;;;5033687;28;20025;-71
2021/12/25 00:32:50;;;;;;;13.70;8.43;;;6.10;99.20;;;;;;5033780;28;20079;-76
2021/12/25 00:35:16;;;;;;;16.10;10.20;;;6.10;99.20;;;;;;5018712;28;20100;-75
2021/12/25 00:37:42;;;;;;;15.13;9.90;;;6.10;99.20;;;;;;5016121;28;20112;-76
2021/12/25 00:40:08;;;;;;;17.10;10.17;;;6.00;99.20;;;;;;5033555;28;20490;-75
2021/12/25 00:42:34;;;;;;;16.03;10.07;;;6.00;99.10;;;;;;4999499;28;20045;-75
2021/12/25 00:45:00;;;;;;;15.73;9.40;;;6.00;99.20;;;;;;5016323;28;20030;-76
2021/12/25 00:47:25;;;;;;;15.60;9.70;;;5.90;99.20;;;;;;5013701;28;20034;-77
2021/12/25 00:49:51;;;;;;;14.03;8.00;;;5.90;99.10;;;;;;5033100;28;20581;-76
2021/12/25 00:52:17;;;;;;;13.13;8.10;;;5.90;99.10;;;;;;5033181;28;20490;-76
2021/12/25 00:54:43;;;;;;;13.87;8.70;;;5.80;99.20;;;;;;5015311;28;20029;-76
2021/12/25 00:57:09;;;;;;;13.67;8.03;;;5.80;99.10;;;;;;5033361;28;20478;-76
2021/12/25 00:59:34;;;;;;;13.90;7.97;;;5.80;99.10;;;;;;5015618;28;20091;-76
2021/12/25 01:02:00;;;;;;;12.53;7.17;;;5.80;99.20;;;;;;5033339;28;20032;-76
2021/12/25 01:04:26;;;;;;;13.63;7.77;;;5.70;99.30;;;;;;5015523;28;20026;-76
2021/12/25 01:06:52;;;;;;;11.77;6.70;;;5.80;99.30;;;;;;5033023;28;20385;-76
2021/12/25 01:09:18;;;;;;;12.10;7.57;;;5.70;99.30;;;;;;5015338;28;20022;-76
2021/12/25 01:11:47;;;;;;;13.00;7.73;;;5.70;99.30;;;;;;5033037;28;20099;-75
2021/12/25 01:14:34;;;;;;;11.40;7.00;;;5.70;99.40;;;;;;5033115;28;20037;-76
2021/12/25 01:24:43;;;;;;;14.47;8.33;;;5.50;99.10;;;;;;5037309;28;20124;-76
2021/12/25 01:30:13;;;;;;;15.10;9.20;;;5.40;99.20;;;;;;5013608;28;20033;-76
2021/12/25 01:33:02;;;;;;;16.33;10.00;;;5.40;99.10;;;;;;5036817;28;20433;-76
2021/12/25 01:35:59;;;;;;;17.57;9.43;;;5.40;99.10;;;;;;5036614;28;20026;-76
2021/12/25 01:49:24;;;;;;;18.02;11.85;;;5.10;98.90;;;;;;5037056;28;20045;-76
2021/12/25 01:51:49;;;;;;;20.70;12.60;;;5.00;98.80;;;;;;5036623;28;20037;-77
2021/12/25 01:54:15;;;;;;;20.57;13.40;;;5.00;98.70;;;;;;5018899;28;20026;-76
2021/12/25 01:56:41;;;;;;;19.17;12.57;;;5.00;98.70;;;;;;4986251;28;20048;-76
2021/12/25 01:59:06;;;;;;;21.40;14.00;;;4.90;98.80;;;;;;5002674;28;20056;-76
2021/12/25 02:01:32;;;;;;;20.70;13.20;;;4.90;98.80;;;;;;5002359;28;20092;-71
2021/12/25 02:03:58;;;;;;;24.97;15.57;;;4.90;98.90;;;;;;5036335;28;20033;-72
2021/12/25 02:06:23;;;;;;;24.70;15.23;;;4.90;98.80;;;;;;5036283;28;20029;-71
2021/12/25 02:08:49;;;;;;;23.43;14.73;;;4.70;98.60;;;;;;5036475;28;20110;-71
2021/12/25 02:11:15;;;;;;;26.07;15.67;;;4.70;98.60;;;;;;5002029;28;20025;-71
2021/12/25 02:13:42;;;;;;;25.60;15.53;;;4.70;98.60;;;;;;5018525;28;20033;-71
2021/12/25 02:16:14;;;;;;;26.13;16.40;;;4.60;98.60;;;;;;5018275;28;20079;-71
2021/12/25 02:21:37;;;;;;;24.47;15.57;;;4.60;98.70;;;;;;5021501;28;20040;-71
2021/12/25 02:24:05;;;;;;;25.90;16.37;;;4.60;98.60;;;;;;5018210;28;20036;-71
2021/12/25 02:26:33;;;;;;;24.90;15.43;;;4.50;98.70;;;;;;5035799;28;20376;-71
2021/12/25 02:28:59;;;;;;;27.43;17.00;;;4.50;98.60;;;;;;5035825;28;20053;-71
2021/12/25 02:31:24;;;;;;;28.67;18.13;;;4.40;98.60;;;;;;5017941;28;20075;-72
2021/12/25 02:33:50;;;;;;;26.60;15.60;;;4.50;98.70;;;;;;5035863;28;20045;-71
2021/12/25 02:36:17;;;;;;;26.60;16.97;;;4.40;98.70;;;;;;5018230;28;20022;-72
2021/12/25 02:38:43;;;;;;;27.53;16.30;;;4.50;98.60;;;;;;5018055;28;20497;-72
2021/12/25 02:41:10;;;;;;;28.13;17.13;;;4.50;98.70;;;;;;5035460;28;20073;-71
2021/12/25 02:43:36;;;;;;;28.00;17.33;;;4.50;98.60;;;;;;5035595;28;20033;-71
2021/12/25 02:46:05;;;;;;;29.80;18.30;;;4.40;98.50;;;;;;5001739;28;20042;-72
2021/12/25 02:48:33;;;;;;;29.87;18.57;;;4.40;98.50;;;;;;5018183;28;20034;-72
2021/12/25 02:51:00;;;;;;;31.40;18.90;;;4.40;98.50;;;;;;5035366;28;20112;-72
2021/12/25 02:53:26;;;;;;;28.97;18.83;;;4.40;98.20;;;;;;5035273;28;20025;-72
2021/12/25 02:55:51;;;;;;;31.90;20.13;;;4.40;98.30;;;;;;5017724;28;20030;-72
2021/12/25 02:58:20;;;;;;;30.50;18.67;;;4.30;98.20;;;;;;5001314;28;20381;-70
2021/12/25 03:00:57;;;;;;;33.40;18.43;;;4.30;98.30;;;;;;5035270;28;20029;-70
2021/12/25 03:03:23;;;;;;;31.20;19.23;;;4.30;98.20;;;;;;5035122;28;20021;-70
2021/12/25 03:05:50;;;;;;;28.77;17.83;;;4.30;98.20;;;;;;5035002;28;20486;-70
2021/12/25 03:08:16;;;;;;;33.20;19.70;;;4.20;98.30;;;;;;5001149;28;20028;-71
2021/12/25 03:10:42;;;;;;;28.57;17.20;;;4.20;98.30;;;;;;5017116;28;20437;-71
2021/12/25 03:15:47;;;;;;;28.73;16.53;;;4.20;98.50;;;;;;5034956;28;20417;-76
2021/12/25 03:18:18;;;;;;;29.87;17.33;;;4.20;98.50;;;;;;5034882;28;20025;-76
2021/12/25 03:20:46;;;;;;;32.87;18.93;;;4.20;98.50;;;;;;5034883;28;20037;-76
2021/12/25 03:23:14;;;;;;;30.37;19.33;;;4.20;98.50;;;;;;5034958;28;20374;-76
2021/12/25 03:25:41;;;;;;;29.57;17.60;;;4.20;98.50;;;;;;5034825;28;20021;-76
2021/12/25 03:28:07;;;;;;;30.83;17.90;;;4.20;98.50;;;;;;5017088;28;20026;-76
2021/12/25 03:30:37;;;;;;;30.00;18.23;;;4.20;98.40;;;;;;5016916;28;20022;-76
2021/12/25 03:33:04;;;;;;;33.57;19.20;;;4.20;98.50;;;;;;5034711;28;20080;-76
2021/12/25 03:35:30;;;;;;;32.50;18.40;;;4.10;98.40;;;;;;5034626;28;20432;-76
2021/12/25 03:37:55;;;;;;;32.13;17.50;;;4.10;98.30;;;;;;5016927;28;20030;-76
2021/12/25 03:40:21;;;;;;;30.90;16.40;;;4.10;98.20;;;;;;5034236;28;20034;-76
2021/12/25 03:42:47;;;;;;;30.57;17.30;;;4.10;98.20;;;;;;5034388;28;20060;-75
2021/12/25 03:45:12;;;;;;;27.80;14.83;;;4.00;98.20;;;;;;5016782;28;20041;-75
2021/12/25 03:47:40;;;;;;;26.17;14.37;;;4.00;98.30;;;;;;5034383;28;20038;-75
2021/12/25 03:58:20;;;;;;;27.10;15.18;;;3.90;98.00;;;;;;5034457;28;20048;-76
2021/12/25 04:00:48;;;;;;;32.40;15.47;;;3.90;97.90;;;;;;5034272;28;20422;-76
2021/12/25 04:03:25;;;;;;;25.37;14.43;;;3.90;97.80;;;;;;5016832;28;20108;-76
2021/12/25 04:05:51;;;;;;;23.70;14.50;;;3.90;97.90;;;;;;5034028;28;20057;-76
2021/12/25 04:08:22;;;;;;;22.40;12.23;;;3.90;97.90;;;;;;4999967;28;20056;-75
2021/12/25 04:10:50;;;;;;;22.13;12.50;;;3.70;98.00;;;;;;5016188;28;20029;-72
2021/12/25 04:13:19;;;;;;;27.80;13.37;;;3.70;98.10;;;;;;5000335;28;20024;-72
2021/12/25 04:15:45;;;;;;;23.47;12.10;;;3.80;98.10;;;;;;5033942;28;20431;-72
2021/12/25 04:18:10;;;;;;;20.67;11.10;;;3.70;98.00;;;;;;5016234;28;20116;-71
2021/12/25 04:20:36;;;;;;;20.60;11.17;;;3.70;98.00;;;;;;4999704;28;20124;-72
2021/12/25 04:23:07;;;;;;;21.57;12.07;;;3.70;98.00;;;;;;5033741;28;20037;-71
2021/12/25 04:25:35;;;;;;;17.30;10.37;;;3.70;97.90;;;;;;5016753;28;20033;-72
2021/12/25 04:28:11;;;;;;;18.10;10.17;;;3.60;97.90;;;;;;5033704;28;20025;-76
2021/12/25 04:42:38;;;;;;;19.07;10.73;;;3.70;97.80;;;;;;5033595;28;20033;-76
2021/12/25 04:50:08;;;;;;;18.73;9.02;;;3.60;97.60;;;;;;5017994;28;20037;-76
2021/12/25 05:06:08;;;;;;;10.77;6.43;;;3.40;96.90;;;;;;5014145;28;20030;-75
2021/12/25 05:08:34;;;;;;;13.97;6.67;;;3.30;96.70;;;;;;5013234;28;20029;-75
2021/12/25 05:10:59;;;;;;;12.43;6.73;;;3.30;96.80;;;;;;4996363;28;20032;-75
2021/12/25 05:13:25;;;;;;;13.63;6.77;;;3.30;96.80;;;;;;4996620;28;20030;-75
2021/12/25 05:15:51;;;;;;;9.80;5.33;;;3.30;96.70;;;;;;4980064;28;20048;-75
2021/12/25 05:18:17;;;;;;;13.73;5.93;;;3.30;96.40;;;;;;5013743;28;20022;-75
2021/12/25 05:20:43;;;;;;;9.77;5.30;;;3.20;96.40;;;;;;5013971;28;20433;-75
2021/12/25 05:23:09;;;;;;;10.03;4.77;;;3.20;96.40;;;;;;4996516;28;20072;-75
2021/12/25 05:25:35;;;;;;;12.23;4.40;;;3.20;96.60;;;;;;4980107;28;20394;-75
2021/12/25 05:28:02;;;;;;;8.77;4.33;;;3.10;96.70;;;;;;4995925;28;20026;-76
2021/12/25 05:30:28;;;;;;;7.70;4.27;;;3.10;96.60;;;;;;4995871;28;20057;-76
2021/12/25 05:32:54;;;;;;;9.00;3.90;;;3.10;96.70;;;;;;5013839;28;20457;-75
2021/12/25 05:35:20;;;;;;;7.93;3.93;;;3.10;96.60;;;;;;4996202;28;20106;-76
2021/12/25 05:37:45;;;;;;;10.30;3.67;;;3.10;96.50;;;;;;4995945;28;20022;-76
2021/12/25 05:40:12;;;;;;;6.30;3.10;;;3.10;96.20;;;;;;4996076;28;20034;-76
2021/12/25 05:42:39;;;;;;;4.70;2.40;;;3.10;96.30;;;;;;4996168;28;20501;-76
2021/12/25 05:45:05;;;;;;;7.27;2.83;;;3.00;96.30;;;;;;5013989;28;20079;-76
2021/12/25 05:47:31;;;;;;;9.00;2.87;;;3.00;95.80;;;;;;4997031;28;20108;-76
2021/12/25 05:49:57;;;;;;;6.00;2.30;;;3.00;95.90;;;;;;5012994;28;20030;-76
2021/12/25 05:52:23;;;;;;;5.93;2.33;;;3.00;95.80;;;;;;5012985;28;20026;-76
2021/12/25 05:54:49;;;;;;;6.57;2.20;;;2.90;95.80;;;;;;5013153;28;20025;-76
2021/12/25 05:57:15;;;;;;;4.53;2.17;;;2.90;95.70;;;;;;5013220;28;20073;-76
2021/12/25 05:59:40;;;;;;;8.97;2.50;;;2.80;95.20;;;;;;4995655;28;20022;-77
2021/12/25 06:02:06;;;;;;;6.37;2.33;;;2.80;95.10;;;;;;5014398;28;20061;-76
2021/12/25 06:04:34;;;;;;;7.00;2.47;;;2.80;95.00;;;;;;5016610;28;20038;-76
2021/12/25 06:07:00;;;;;;;5.93;1.93;;;2.70;94.80;;;;;;5016621;28;20030;-76
2021/12/25 06:09:26;;;;;;;4.97;2.10;;;2.60;95.00;;;;;;5016514;28;20033;-76
2021/12/25 06:11:52;;;;;;;5.53;1.97;;;2.60;95.10;;;;;;5016439;28;20033;-76
2021/12/25 06:14:20;;;;;;;5.27;2.23;;;2.60;95.30;;;;;;5016451;28;20022;-76
2021/12/25 06:16:46;;;;;;;4.97;1.67;;;2.50;95.10;;;;;;4999260;28;20028;-76
2021/12/25 06:19:12;;;;;;;4.20;2.00;;;2.50;95.20;;;;;;5016221;28;20109;-76
2021/12/25 06:21:38;;;;;;;5.17;2.20;;;2.50;95.00;;;;;;4982562;28;20045;-76
2021/12/25 06:24:05;;;;;;;4.23;2.27;;;2.50;95.10;;;;;;5016206;28;20041;-72
2021/12/25 06:26:32;;;;;;;5.53;2.10;;;2.40;95.10;;;;;;4998575;28;20028;-72
2021/12/25 06:28:58;;;;;;;11.83;3.70;;;2.40;95.20;;;;;;4998625;28;20109;-72
2021/12/25 06:31:24;;;;;;;5.53;2.30;;;2.30;95.20;;;;;;5019414;28;20568;-72
2021/12/25 06:33:50;;;;;;;7.20;2.60;;;2.40;95.40;;;;;;5023288;28;20462;-72
2021/12/25 06:36:16;;;;;;;4.70;2.13;;;2.30;95.40;;;;;;5018306;28;20107;-72
2021/12/25 06:38:42;;;;;;;7.37;2.77;;;2.30;95.40;;;;;;5004139;28;20508;-72
2021/12/25 06:41:10;;;;;;;5.40;2.97;;;2.30;95.20;;;;;;4999998;28;20029;-72
2021/12/25 06:43:36;;;;;;;5.83;3.00;;;2.30;95.20;;;;;;5024683;28;20042;-72
2021/12/25 06:46:03;;;;;;;6.43;3.37;;;2.30;95.20;;;;;;5014278;28;20389;-72
2021/12/25 06:48:29;;;;;;;6.33;2.93;;;2.30;95.30;;;;;;4997063;28;20394;-72
2021/12/25 06:50:54;;;;;;;6.93;3.10;;;2.20;95.20;;;;;;4998167;28;20044;-72
2021/12/25 06:53:20;;;;;;;9.00;3.73;;;2.20;94.90;;;;;;4998221;28;20113;-72
2021/12/25 06:55:46;;;;;;;9.07;3.70;;;2.20;94.90;;;;;;4997996;28;20034;-72
2021/12/25 06:58:12;;;;;;;7.17;3.43;;;2.10;94.80;;;;;;4998248;28;20030;-72
2021/12/25 07:00:38;;;;;;;6.10;3.17;;;2.10;94.90;;;;;;5015568;28;20025;-72
2021/12/25 07:03:04;;;;;;;10.47;4.07;;;2.00;94.70;;;;;;4997919;28;20030;-72
2021/12/25 07:05:29;;;;;;;7.63;3.40;;;2.00;94.80;;;;;;5015369;28;20041;-72
2021/12/25 07:07:55;;;;;;;6.80;3.60;;;2.00;94.80;;;;;;4998119;28;20175;-76
2021/12/25 07:10:21;;;;;;;8.47;3.50;;;1.90;94.80;;;;;;4998618;28;20613;-76
2021/12/25 07:12:49;;;;;;;7.93;3.30;;;1.80;94.80;;;;;;4992694;28;20364;-76
2021/12/25 07:15:15;;;;;;;7.77;4.03;;;1.80;94.90;;;;;;5032902;28;20025;-76
2021/12/25 07:17:42;;;;;;;5.97;3.10;;;1.80;95.00;;;;;;5016135;28;20530;-76
2021/12/25 07:20:08;;;;;;;5.77;3.00;;;1.80;95.10;;;;;;5034806;28;20115;-77
2021/12/25 07:22:34;;;;;;;6.70;2.67;;;1.80;95.00;;;;;;5016877;28;20037;-77
2021/12/25 07:25:00;;;;;;;8.77;3.80;;;1.80;95.00;;;;;;5017169;28;20030;-76
2021/12/25 07:27:25;;;;;;;10.27;3.57;;;1.80;94.80;;;;;;5017210;28;20104;-76
2021/12/25 07:29:51;;;;;;;7.57;3.53;;;1.80;94.70;;;;;;5015977;28;20104;-75
2021/12/25 07:32:17;;;;;;;8.70;3.60;;;1.70;94.70;;;;;;5033508;28;20223;-75
2021/12/25 07:34:45;;;;;;;7.03;3.13;;;1.70;94.60;;;;;;4998413;28;20037;-77
2021/12/25 07:37:13;;;;;;;8.40;2.97;;;1.60;94.70;;;;;;4999657;28;20029;-76
2021/12/25 07:39:40;;;;;;;8.67;3.10;;;1.60;94.60;;;;;;5015175;28;20105;-77
2021/12/25 07:42:06;;;;;;;7.57;3.40;;;1.60;94.80;;;;;;5016948;28;20046;-77
2021/12/25 07:44:32;;;;;;;5.00;2.97;;;1.60;94.60;;;;;;5034205;28;20087;-77
2021/12/25 07:46:58;;;;;;;8.63;3.03;;;1.50;94.60;;;;;;5034464;28;20436;-76
2021/12/25 07:49:24;;;;;;;6.53;3.00;;;1.50;94.60;;;;;;5034283;28;20029;-77
2021/12/25 07:51:49;;;;;;;6.67;3.17;;;1.50;94.80;;;;;;5017067;28;20044;-77
2021/12/25 07:54:15;;;;;;;6.50;3.70;;;1.40;94.80;;;;;;5016719;28;20025;-76
2021/12/25 07:56:41;;;;;;;7.87;3.50;;;1.40;94.50;;;;;;5000251;28;20113;-76
2021/12/25 07:59:07;;;;;;;8.07;4.13;;;1.40;94.60;;;;;;5034177;28;20489;-76
2021/12/25 08:01:35;;;;;;;8.07;4.00;;;1.30;94.50;;;;;;5016505;28;20025;-77
2021/12/25 08:04:03;;;;;;;6.47;3.57;;;1.30;94.80;;;;;;5016380;28;20029;-77
2021/12/25 08:06:30;;;;;;;6.73;3.53;;;1.30;94.70;;;;;;5034142;28;20017;-76
2021/12/25 08:08:59;;;;;;;7.97;3.50;;;1.20;94.60;;;;;;5017083;28;20021;-76
2021/12/25 08:11:25;;;;;;;10.47;4.33;;;1.20;94.60;;;;;;5017213;28;20107;-77
2021/12/25 08:13:50;;;;;;;8.23;3.43;;;1.10;94.70;;;;;;5016705;28;20489;-71
2021/12/25 08:16:16;;;;;;;8.47;4.00;;;1.20;94.60;;;;;;5034395;28;20029;-77
2021/12/25 08:18:42;;;;;;;8.67;4.60;;;1.10;94.40;;;;;;5000350;28;20025;-77
2021/12/25 08:21:07;;;;;;;8.30;4.00;;;1.10;94.40;;;;;;4999822;28;20033;-76
2021/12/25 08:23:33;;;;;;;9.20;4.73;;;1.00;94.30;;;;;;5000041;28;20030;-76
2021/12/25 08:26:04;;;;;;;8.33;4.50;;;1.00;94.40;;;;;;5016070;28;20038;-72
2021/12/25 08:28:30;;;;;;;9.17;3.70;;;0.90;94.20;;;;;;5033874;28;20401;-73
2021/12/25 08:30:56;;;;;;;6.67;3.30;;;0.90;94.20;;;;;;5033904;28;20037;-77
2021/12/25 08:33:21;;;;;;;5.67;3.20;;;0.80;94.10;;;;;;4999689;28;20489;-77
2021/12/25 08:35:47;;;;;;;6.60;2.80;;;0.80;94.30;;;;;;5033612;28;20024;-73
2021/12/25 08:38:13;;;;;;;7.30;2.97;;;0.80;94.40;;;;;;4999914;28;20092;-77
2021/12/25 08:40:39;;;;;;;6.83;3.30;;;0.70;94.50;;;;;;5007658;28;20121;-75
2021/12/25 08:43:05;;;;;;;9.90;3.53;;;0.70;94.60;;;;;;5030607;28;20116;-77
2021/12/25 08:48:03;;;;;;;5.77;2.90;;;0.70;94.50;;;;;;5033436;28;20037;-76
2021/12/25 08:50:29;;;;;;;5.27;2.00;;;0.70;94.00;;;;;;4999411;28;20367;-77
2021/12/25 08:52:55;;;;;;;5.30;2.03;;;0.70;94.20;;;;;;4999113;28;20029;-77
2021/12/25 08:55:21;;;;;;;7.70;1.80;;;0.60;94.20;;;;;;5015698;28;20437;-76
2021/12/25 08:57:47;;;;;;;6.07;2.00;;;0.50;94.30;;;;;;5033148;28;20552;-76
2021/12/25 09:00:13;;;;;;;4.67;1.60;;;0.60;94.20;;;;;;5032978;28;20021;-76
2021/12/25 09:02:39;;;;;;;5.47;1.80;;;0.60;94.00;;;;;;5015447;28;20064;-76
2021/12/25 09:05:04;;;;;;;9.17;1.90;;;0.60;94.00;;;;;;5032924;28;20123;-76
2021/12/25 09:07:30;;;;;;;4.37;1.57;;;0.60;94.10;;;;;;4999012;28;20187;-76
2021/12/25 09:09:58;;;;;;;4.40;1.33;;;0.60;93.90;;;;;;5033284;28;20022;-76
2021/12/25 09:12:25;;;;;;;4.77;1.70;;;0.60;94.00;;;;;;5032860;28;20032;-76
2021/12/25 09:14:51;;;;;;;4.23;1.13;;;0.60;93.80;;;;;;4999131;28;20029;-76
2021/12/25 09:17:16;;;;;;;2.83;0.90;;;0.60;93.50;;;;;;5032644;28;20378;-76
2021/12/25 09:19:43;;;;;;;3.23;1.10;;;0.60;93.40;;;;;;5015080;28;20083;-76
2021/12/25 09:22:11;;;;;;;3.97;1.13;;;0.70;93.60;;;;;;5015198;28;20033;-76
2021/12/25 09:24:37;;;;;;;4.77;1.20;;;0.70;93.70;;;;;;5031543;28;20084;-76
2021/12/25 09:27:05;;;;;;;4.37;1.00;;;0.70;93.50;;;;;;5014691;28;20056;-77
2021/12/25 09:29:31;;;;;;;5.07;0.93;;;0.70;93.70;;;;;;5015218;28;20509;-76
2021/12/25 09:31:57;;;;;;;2.53;1.00;;;0.90;93.10;;;;;;5015222;28;20504;-77
2021/12/25 09:34:22;;;;;;;3.40;1.00;;;1.00;93.10;;;;;;5014891;28;20022;-76
2021/12/25 09:36:48;;;;;;;4.27;0.90;;;1.40;93.60;;;;;;5033729;28;20032;-76
2021/12/25 09:39:14;;;;;;;2.00;0.80;;;1.60;94.00;;;;;;5036521;28;20160;-76
2021/12/25 09:41:39;;;;;;;1.27;0.50;;;2.00;94.20;;;;;;5002563;28;20091;-76
2021/12/25 09:44:06;;;;;;;1.40;0.57;;;2.50;94.90;;;;;;5036878;28;20477;-79
2021/12/25 09:46:33;;;;;;;1.23;0.50;;;3.00;94.80;;;;;;5018781;28;20026;-76
2021/12/25 09:48:59;;;;;;;1.23;0.40;;;3.60;95.40;;;;;;5036570;28;20040;-76
2021/12/25 09:51:25;;;;;;;0.80;0.40;;;4.30;95.60;;;;;;5018916;28;20079;-77
2021/12/25 09:54:00;;;;;;;1.43;0.37;;;5.00;95.60;;;;;;4998737;28;20033;-77
2021/12/25 09:56:27;;;;;;;0.70;0.30;;;5.50;94.90;;;;;;4999006;28;20083;-77
2021/12/25 09:58:53;;;;;;;1.43;0.30;;;6.00;94.70;;;;;;5016619;28;20049;-80
2021/12/25 10:01:38;;;;;;;1.60;0.30;;;6.60;95.30;;;;;;5016863;28;20038;-76
2021/12/25 10:04:07;;;;;;;0.82;0.30;;;7.00;93.20;;;;;;4999173;28;20018;-76
2021/12/25 10:06:42;;;;;;;2.53;0.43;;;7.50;91.80;;;;;;5007824;28;20021;-76
2021/12/25 10:09:13;;;;;;;1.85;0.30;;;8.00;91.00;;;;;;5018801;28;20029;-77
2021/12/25 10:11:57;;;;;;;1.80;0.40;;;8.60;91.00;;;;;;5036043;28;20068;-77
2021/12/25 10:14:22;;;;;;;1.70;0.40;;;9.00;86.80;;;;;;5036269;28;20072;-77
2021/12/25 10:16:48;;;;;;;1.35;0.40;;;9.30;84.90;;;;;;5036234;28;20033;-77
2021/12/25 10:19:17;;;;;;;1.90;0.30;;;9.50;83.40;;;;;;5035778;28;20043;-77
2021/12/25 10:21:43;;;;;;;1.38;0.25;;;9.80;82.50;;;;;;5035822;28;20492;-76
2021/12/25 10:24:18;;;;;;;0.73;0.28;;;10.10;82.70;;;;;;5035776;28;20025;-77
2021/12/25 10:26:48;;;;;;;1.92;0.30;;;10.50;75.50;;;;;;5035219;28;20098;-76
2021/12/25 10:29:30;;;;;;;2.00;0.30;;;10.60;75.60;;;;;;5035926;28;20054;-76
2021/12/25 10:31:58;;;;;;;2.53;0.30;;;10.60;72.50;;;;;;5055420;28;20028;-77
2021/12/25 10:34:29;;;;;;;0.95;0.30;;;10.60;72.10;;;;;;5041840;28;20033;-77
2021/12/25 10:37:11;;;;;;;2.65;0.40;;;10.50;69.70;;;;;;5035844;28;20080;-77
2021/12/25 10:39:36;;;;;;;0.73;0.20;;;10.40;68.10;;;;;;5034950;28;20033;-77
2021/12/25 10:42:11;;;;;;;0.82;0.30;;;10.20;65.00;;;;;;5035381;28;20140;-77
2021/12/25 10:44:52;;;;;;;1.73;0.35;;;10.00;64.30;;;;;;5035547;28;20117;-76
2021/12/25 10:47:26;;;;;;;2.35;0.30;;;9.80;66.00;;;;;;5017827;28;20029;-76
2021/12/25 10:50:08;;;;;;;1.05;0.40;;;9.80;64.90;;;;;;5035585;28;20390;-77
2021/12/25 10:52:43;;;;;;;1.90;0.40;;;9.90;63.90;;;;;;5017526;28;20037;-77
2021/12/25 10:55:20;;;;;;;1.25;0.40;;;9.90;62.20;;;;;;5035426;28;20382;-77
2021/12/25 10:57:54;;;;;;;1.52;0.30;;;10.20;63.30;;;;;;5035207;28;20025;-73
2021/12/25 11:00:20;;;;;;;0.90;0.30;;;10.50;62.20;;;;;;5017470;28;20029;-73
2021/12/25 11:02:48;;;;;;;0.90;0.30;;;10.70;61.30;;;;;;5017636;28;20432;-73
2021/12/25 11:05:27;;;;;;;1.17;0.30;;;10.90;62.30;;;;;;5035010;28;20034;-73
2021/12/25 11:08:08;;;;;;;1.58;0.30;;;11.00;60.40;;;;;;5035133;28;20092;-73
2021/12/25 11:10:53;;;;;;;1.80;0.40;;;11.10;58.00;;;;;;5035007;28;20052;-74
2021/12/25 11:13:23;;;;;;;1.67;0.30;;;11.10;57.50;;;;;;5035017;28;20017;-72
2021/12/25 11:15:53;;;;;;;0.98;0.30;;;11.10;57.70;;;;;;5017008;28;20028;-72
2021/12/25 11:18:19;;;;;;;1.88;0.50;;;11.10;56.60;;;;;;5017877;28;20104;-72
2021/12/25 11:20:46;;;;;;;1.38;0.40;;;11.10;55.70;;;;;;5017244;28;20022;-72
2021/12/25 11:23:13;;;;;;;1.70;0.30;;;10.90;54.70;;;;;;5016371;28;20036;-72
2021/12/25 11:25:41;;;;;;;1.58;0.30;;;10.80;51.70;;;;;;5034708;28;20032;-71
2021/12/25 11:28:10;;;;;;;1.23;0.40;;;10.60;52.20;;;;;;5034206;28;20029;-72
2021/12/25 11:30:42;;;;;;;2.15;0.20;;;10.50;53.20;;;;;;5034618;28;20103;-72
2021/12/25 11:33:08;;;;;;;0.65;0.20;;;10.40;54.30;;;;;;5016753;28;20029;-72
2021/12/25 11:35:35;;;;;;;1.17;0.32;;;10.50;54.10;;;;;;5016825;28;20049;-71
2021/12/25 11:38:03;;;;;;;0.93;0.20;;;10.50;54.30;;;;;;5034674;28;20363;-71
2021/12/25 11:40:31;;;;;;;1.38;0.35;;;10.40;53.10;;;;;;5016702;28;20028;-72
2021/12/25 11:43:00;;;;;;;3.00;0.60;;;10.30;52.70;;;;;;5016484;28;20042;-71
2021/12/25 11:45:34;;;;;;;2.72;0.50;;;10.10;53.00;;;;;;5034460;28;20113;-73
2021/12/25 11:48:10;;;;;;;2.85;0.50;;;10.00;53.20;;;;;;5034445;28;20124;-73
2021/12/25 11:50:41;;;;;;;2.72;0.55;;;10.00;51.50;;;;;;5034352;28;20437;-72
2021/12/25 11:53:25;;;;;;;3.03;0.50;;;10.00;51.20;;;;;;5033989;28;20055;-72
2021/12/25 11:58:42;;;;;;;1.05;0.30;;;10.70;52.10;;;;;;5041487;28;20021;-77
2021/12/25 12:01:17;;;;;;;1.98;0.40;;;10.80;52.60;;;;;;5034404;28;20021;-78
2021/12/25 12:03:46;;;;;;;3.40;0.50;;;11.00;52.80;;;;;;5035493;28;20489;-79
2021/12/25 12:06:15;;;;;;;2.08;0.50;;;11.10;51.50;;;;;;5018058;28;20425;-78
2021/12/25 12:08:53;;;;;;;1.10;0.35;;;11.20;51.40;;;;;;5016403;28;20021;-78
2021/12/25 12:11:26;;;;;;;4.70;0.40;;;11.40;51.70;;;;;;5015927;28;20405;-78
2021/12/25 12:14:17;;;;;;;1.33;0.30;;;11.80;51.50;;;;;;5024564;28;20040;-78
2021/12/25 12:16:46;;;;;;;3.42;0.30;;;12.40;52.00;;;;;;5035586;28;20032;-78
2021/12/25 12:27:36;;;;;;;1.25;0.50;;;14.40;48.40;;;;;;5033821;28;20156;-78
2021/12/25 12:30:05;;;;;;;1.65;0.40;;;14.70;46.50;;;;;;5016241;28;20116;-78
2021/12/25 12:32:43;;;;;;;1.95;0.30;;;14.90;47.50;;;;;;5033264;28;20029;-78
2021/12/25 12:35:28;;;;;;;2.78;0.52;;;15.20;47.70;;;;;;5015743;28;20028;-77
2021/12/25 12:37:54;;;;;;;1.67;0.30;;;15.70;46.10;;;;;;5033861;28;20458;-78
2021/12/25 12:40:26;;;;;;;1.40;0.43;;;16.00;45.40;;;;;;5015922;28;20617;-74
2021/12/25 12:42:57;;;;;;;2.75;0.47;;;16.20;44.10;;;;;;5033526;28;20442;-73
2021/12/25 12:45:45;;;;;;;1.40;0.45;;;16.30;43.60;;;;;;5015766;28;20477;-77
2021/12/25 12:48:14;;;;;;;1.67;0.40;;;16.40;43.70;;;;;;5032536;28;20067;-77
2021/12/25 12:50:43;;;;;;;2.10;0.60;;;16.60;43.50;;;;;;5033433;28;20075;-73
2021/12/25 12:53:09;;;;;;;3.15;0.40;;;16.80;41.80;;;;;;5015881;28;20482;-73
2021/12/25 12:55:42;;;;;;;1.30;0.40;;;16.80;42.60;;;;;;4999228;28;20112;-73
2021/12/25 12:58:09;;;;;;;1.20;0.30;;;16.70;42.00;;;;;;5015207;28;20018;-73
2021/12/25 13:00:36;;;;;;;2.28;0.40;;;16.80;42.40;;;;;;5033082;28;20026;-73
2021/12/25 13:03:02;;;;;;;1.92;0.40;;;16.80;42.30;;;;;;5032398;28;20029;-74
2021/12/25 13:05:33;;;;;;;0.80;0.40;;;16.90;41.80;;;;;;5014303;28;20025;-74
2021/12/25 13:08:01;;;;;;;2.05;0.50;;;17.10;40.70;;;;;;5015535;28;20080;-73
2021/12/25 13:10:44;;;;;;;1.52;0.40;;;17.10;39.80;;;;;;5014588;28;20030;-73
2021/12/25 13:13:15;;;;;;;1.60;0.38;;;17.10;38.60;;;;;;5032322;28;20025;-73
2021/12/25 13:15:43;;;;;;;1.33;0.50;;;17.10;39.10;;;;;;5015483;28;20025;-73
2021/12/25 13:18:11;;;;;;;2.45;0.50;;;17.10;37.10;;;;;;5015457;28;20022;-73
2021/12/25 13:20:36;;;;;;;1.23;0.50;;;17.00;36.50;;;;;;5033044;28;20030;-73
2021/12/25 13:23:05;;;;;;;1.92;0.40;;;16.80;36.90;;;;;;5032804;28;20030;-73
2021/12/25 13:25:31;;;;;;;3.80;0.60;;;16.80;37.60;;;;;;5033326;28;20025;-73
2021/12/25 13:27:59;;;;;;;2.15;0.40;;;16.80;36.80;;;;;;5015138;28;20108;-74
2021/12/25 13:30:27;;;;;;;1.73;0.50;;;16.70;36.40;;;;;;5014757;28;20037;-74
2021/12/25 13:32:53;;;;;;;2.20;0.50;;;16.70;37.00;;;;;;5032793;28;20037;-73
2021/12/25 13:35:23;;;;;;;3.60;0.43;;;16.70;37.40;;;;;;4998871;28;20026;-74
2021/12/25 13:38:00;;;;;;;1.40;0.50;;;16.60;35.60;;;;;;5015363;28;20022;-74
2021/12/25 13:40:26;;;;;;;3.47;0.40;;;16.50;35.30;;;;;;5014075;28;20032;-74
2021/12/25 13:42:52;;;;;;;1.98;0.40;;;16.40;35.90;;;;;;5015494;28;20111;-73
2021/12/25 13:45:22;;;;;;;1.27;0.40;;;16.40;36.50;;;;;;5015661;28;20029;-75
2021/12/25 13:47:48;;;;;;;2.45;0.45;;;16.30;36.50;;;;;;5015074;28;20200;-74
2021/12/25 13:50:14;;;;;;;1.65;0.50;;;16.30;36.80;;;;;;5013204;28;20473;-73
2021/12/25 13:52:46;;;;;;;2.53;0.60;;;16.30;36.40;;;;;;4997409;28;20083;-74
2021/12/25 13:55:12;;;;;;;1.60;0.50;;;16.30;36.10;;;;;;5014128;28;20021;-74
2021/12/25 13:57:52;;;;;;;2.65;0.43;;;16.40;36.10;;;;;;5014740;28;20389;-74
2021/12/25 14:00:21;;;;;;;2.00;0.52;;;16.20;35.70;;;;;;5032361;28;20033;-73
2021/12/25 14:02:51;;;;;;;2.20;0.50;;;16.00;35.70;;;;;;5014532;28;20029;-74
2021/12/25 14:05:20;;;;;;;1.73;0.60;;;15.50;35.60;;;;;;5030431;28;20029;-74
2021/12/25 14:07:48;;;;;;;3.17;0.50;;;15.10;36.30;;;;;;5014280;28;20120;-73
2021/12/25 14:10:22;;;;;;;2.97;0.50;;;14.90;36.50;;;;;;5014569;28;20068;-73
2021/12/25 14:12:54;;;;;;;3.40;0.45;;;14.50;35.80;;;;;;5031241;28;20029;-73